Buckland Airport Buckland US
ICAO: PABL
IATA:
Category: Medium
Scheduled Services:

Elevation: 31 ft
TransAlt. 18000 ft.

Airport Communications:
AWOS 3:135.15
ANCHORAGE APP/DEP:119.2
CTAF:122.9
KOTZEBUE RDO:122.3

PABL Zoom In..

Runways:

(A) RW 11 length 3200 ft width 75 ft
---- / hdg 107

(B) RW 29 length 3200 ft width 75 ft
---- / hdg 287

Location; PABL
Day. 14 / Time. 13.56 Zulu
* Altimeter: 29.71
* Temperature: 02° c. 35.6°f.
* Wind from: 320° Speed 06 kn.
Dewpoint: 01° c.
Visibility: 10 Statute Miles.
Clouds: Clear (automated report).

PABL 141356Z AUTO 32006KT 10SM CLR 02/01 A2971 RMK AO2 SLP061 T00170006 FZRANO


Wind From 320°
Speed 06 kn.

 
 
jpsmedia.com for Web Design worldairports.se 2018   terms of use